Time,TemperatureF,DewpointF,PressureIn,WindDirection,WindDirectionDegrees,WindSpeedMPH,WindSpeedGustMPH,Humidity,HourlyPrecipIn,Conditions,Clouds,dailyrainin,SoftwareType,DateUTC
2013-10-22 10:30:00,-6.9,-11.7,29.07,NE,42,7.0,7.0,79,0.00,CLR,,0.00,WeatherDisplay:10.37,2013-10-21 21:30:00,
2013-10-22 10:45:00,-7.1,-12.1,29.08,NE,45,7.0,7.0,78,0.00,CLR,,0.00,WeatherDisplay:10.37,2013-10-21 21:45:00,
2013-10-22 11:15:00,-7.2,-11.7,29.09,NE,38,8.0,8.0,80,0.00,CLR,,0.00,WeatherDisplay:10.37,2013-10-21 22:15:00,
2013-10-22 11:30:00,-5.5,-9.6,29.09,NE,37,8.0,8.0,82,0.00,CLR,,0.00,WeatherDisplay:10.37,2013-10-21 22:30:00,
2013-10-22 12:00:00,-2.9,-7.5,29.10,NE,37,10.0,10.0,80,0.00,CLR,,0.00,WeatherDisplay:10.37,2013-10-21 23:00:00,
2013-10-22 12:15:00,-2.7,-7.6,29.10,NE,40,9.0,10.0,79,0.00,CLR,,0.00,WeatherDisplay:10.37,2013-10-21 23:15:00,
2013-10-22 12:30:00,-2.0,-7.2,29.11,NE,42,8.0,9.0,78,0.00,CLR,,0.00,WeatherDisplay:10.37,2013-10-21 23:30:00,
2013-10-22 12:45:00,-1.5,-7.0,29.11,NE,44,7.0,8.0,77,0.00,CLR,,0.00,WeatherDisplay:10.37,2013-10-21 23:45:00,
2013-10-22 13:00:00,-1.5,-6.9,29.12,NE,41,7.0,7.0,77,0.00,CLR,,0.00,WeatherDisplay:10.37,2013-10-22 00:00:00,
2013-10-22 13:15:00,-0.8,-6.5,29.12,NE,37,8.0,8.0,76,0.00,CLR,,0.00,WeatherDisplay:10.37,2013-10-22 00:15:00,
2013-10-22 13:30:00,-0.4,-6.4,29.12,NE,39,8.0,8.0,75,0.00,CLR,,0.00,WeatherDisplay:10.37,2013-10-22 00:30:00,
2013-10-22 13:45:00,0.1,-5.7,29.13,NE,37,9.0,9.0,76,0.00,CLR,,0.00,WeatherDisplay:10.37,2013-10-22 00:45:00,
2013-10-22 14:00:00,0.2,-5.6,29.13,NE,39,9.0,9.0,76,0.00,CLR,,0.00,WeatherDisplay:10.37,2013-10-22 01:00:00,
2013-10-22 14:15:00,-0.2,-5.4,29.13,NE,36,10.0,10.0,78,0.00,CLR,,0.00,WeatherDisplay:10.37,2013-10-22 01:15:00,
2013-10-22 14:30:00,-0.3,-5.6,29.13,NE,38,12.0,12.0,78,0.00,CLR,,0.00,WeatherDisplay:10.37,2013-10-22 01:30:00,
2013-10-22 14:45:00,-0.5,-5.5,29.13,NE,37,12.0,12.0,79,0.00,CLR,,0.00,WeatherDisplay:10.37,2013-10-22 01:45:00,
2013-10-22 15:00:00,-0.4,-5.4,29.13,NNE,33,13.0,13.0,79,0.00,CLR,,0.00,WeatherDisplay:10.37,2013-10-22 02:00:00,
2013-10-22 15:15:00,-0.3,-5.3,29.14,NNE,32,13.0,13.0,79,0.00,CLR,,0.00,WeatherDisplay:10.37,2013-10-22 02:15:00,
2013-10-22 15:30:00,-0.3,-5.6,29.15,NE,41,12.0,13.0,78,0.00,CLR,,0.00,WeatherDisplay:10.37,2013-10-22 02:30:00,
2013-10-22 15:45:00,-0.7,-5.7,29.15,NE,53,12.0,12.0,79,0.00,CLR,,0.00,WeatherDisplay:10.37,2013-10-22 02:45:00,
2013-10-22 16:00:00,-0.7,-5.6,29.16,ENE,67,10.0,12.0,79,0.00,CLR,,0.00,WeatherDisplay:10.37,2013-10-22 03:00:00,
2013-10-22 16:15:00,-1.1,-6.3,29.15,ENE,75,10.0,10.0,78,0.00,CLR,,0.00,WeatherDisplay:10.37,2013-10-22 03:15:00,
2013-10-22 16:30:00,-1.8,-6.8,29.16,ENE,76,12.0,12.0,79,0.00,CLR,,0.00,WeatherDisplay:10.37,2013-10-22 03:30:00,
2013-10-22 16:45:00,-2.5,-7.4,29.16,ENE,67,12.0,12.0,79,0.00,CLR,,0.00,WeatherDisplay:10.37,2013-10-22 03:45:00,
2013-10-22 17:00:00,-2.6,-7.5,29.16,ENE,62,12.0,12.0,79,0.00,CLR,,0.00,WeatherDisplay:10.37,2013-10-22 04:00:00,
2013-10-22 17:15:00,-2.9,-8.1,29.16,ENE,70,8.0,12.0,78,0.00,CLR,,0.00,WeatherDisplay:10.37,2013-10-22 04:15:00,
2013-10-22 17:30:00,-3.2,-8.4,29.16,ENE,61,8.0,8.0,78,0.00,CLR,,0.00,WeatherDisplay:10.37,2013-10-22 04:30:00,
2013-10-22 17:45:00,-3.6,-8.5,29.16,NE,38,13.0,13.0,79,0.00,CLR,,0.00,WeatherDisplay:10.37,2013-10-22 04:45:00,
2013-10-22 18:00:00,-3.7,-8.3,29.16,NE,36,13.0,13.0,80,0.00,CLR,,0.00,WeatherDisplay:10.37,2013-10-22 05:00:00,
2013-10-22 18:15:00,-3.7,-8.3,29.16,NE,36,15.0,15.0,80,0.00,CLR,,0.00,WeatherDisplay:10.37,2013-10-22 05:15:00,
2013-10-22 18:30:00,-2.9,-7.3,29.17,NE,48,16.0,16.0,81,0.00,CLR,,0.00,WeatherDisplay:10.37,2013-10-22 05:30:00,
2013-10-22 18:45:00,-2.7,-7.1,29.17,ENE,70,10.0,16.0,81,0.00,CLR,,0.00,WeatherDisplay:10.37,2013-10-22 05:45:00,
2013-10-22 19:00:00,-2.6,-7.3,29.16,East,81,14.0,14.0,80,0.00,CLR,,0.00,WeatherDisplay:10.37,2013-10-22 06:00:00,
2013-10-22 19:15:00,-3.1,-7.8,29.17,ENE,65,13.0,14.0,80,0.00,CLR,,0.00,WeatherDisplay:10.37,2013-10-22 06:15:00,
2013-10-22 19:30:00,-3.7,-8.1,29.17,NE,49,14.0,14.0,81,0.00,CLR,,0.00,WeatherDisplay:10.37,2013-10-22 06:30:00,
2013-10-22 19:45:00,-3.8,-8.2,29.18,NE,36,17.0,17.0,81,0.00,CLR,,0.00,WeatherDisplay:10.37,2013-10-22 06:45:00,
2013-10-22 20:00:00,-3.7,-8.1,29.18,NE,44,14.0,17.0,81,0.00,CLR,,0.00,WeatherDisplay:10.37,2013-10-22 07:00:00,
2013-10-22 20:15:00,-3.1,-7.4,29.18,ENE,73,12.0,14.0,81,0.00,CLR,,0.00,WeatherDisplay:10.37,2013-10-22 07:15:00,
2013-10-22 20:30:00,-2.7,-7.3,29.18,East,88,13.0,13.0,80,0.00,CLR,,0.00,WeatherDisplay:10.37,2013-10-22 07:30:00,
2013-10-22 20:45:00,-2.5,-7.2,29.18,ENE,72,9.0,13.0,80,0.00,CLR,,0.00,WeatherDisplay:10.37,2013-10-22 07:45:00,
2013-10-22 21:00:00,-2.6,-7.0,29.18,ENE,71,12.0,12.0,81,0.00,CLR,,0.00,WeatherDisplay:10.37,2013-10-22 08:00:00,
2013-10-22 21:15:00,-2.3,-6.7,29.18,ENE,73,13.0,13.0,81,0.00,CLR,,0.00,WeatherDisplay:10.37,2013-10-22 08:15:00,
2013-10-22 21:30:00,-2.2,-6.4,29.19,ENE,66,13.0,13.0,82,0.00,CLR,,0.00,WeatherDisplay:10.37,2013-10-22 08:30:00,
2013-10-22 21:45:00,-1.7,-5.6,29.19,ESE,112,9.0,13.0,83,0.00,CLR,,0.00,WeatherDisplay:10.37,2013-10-22 08:45:00,
2013-10-22 22:00:00,-1.9,-6.1,29.19,ESE,106,10.0,10.0,82,0.00,CLR,,0.00,WeatherDisplay:10.37,2013-10-22 09:00:00,
2013-10-22 22:15:00,-1.7,-5.9,29.19,ENE,62,10.0,10.0,82,0.00,CLR,,0.00,WeatherDisplay:10.37,2013-10-22 09:15:00,
2013-10-22 22:30:00,-3.0,-7.1,29.19,NE,43,14.0,14.0,82,0.00,CLR,,0.00,WeatherDisplay:10.37,2013-10-22 09:30:00,
2013-10-22 22:45:00,-3.0,-7.2,29.20,NE,48,13.0,14.0,82,0.00,CLR,,0.00,WeatherDisplay:10.37,2013-10-22 09:45:00,
2013-10-22 23:00:00,-2.6,-6.5,29.20,NE,56,12.0,13.0,83,0.00,CLR,,0.00,WeatherDisplay:10.37,2013-10-22 10:00:00,
2013-10-22 23:15:00,-2.3,-6.7,29.19,NE,34,15.0,15.0,81,0.00,CLR,,0.00,WeatherDisplay:10.37,2013-10-22 10:15:00,
2013-10-22 23:30:00,-3.1,-7.0,29.19,NNE,19,17.0,17.0,83,0.00,CLR,,0.00,WeatherDisplay:10.37,2013-10-22 10:30:00,
2013-10-22 23:45:00,-3.8,-7.9,29.20,NE,39,17.0,17.0,82,0.00,CLR,,0.00,WeatherDisplay:10.37,2013-10-22 10:45:00,